sensor_id;sensor_type;location;lat;lon;timestamp;pressure;altitude;pressure_sealevel;temperature;humidity
72110;BME280;59983;52.010;5.420;2022-12-05T00:00:48;101888.66;;;4.76;83.97
72110;BME280;59983;52.010;5.420;2022-12-05T00:03:14;101878.72;;;4.76;84.68
72110;BME280;59983;52.010;5.420;2022-12-05T00:05:41;101883.28;;;4.81;84.11
72110;BME280;59983;52.010;5.420;2022-12-05T00:08:08;101884.88;;;4.82;84.40
72110;BME280;59983;52.010;5.420;2022-12-05T00:10:35;101882.19;;;4.82;84.38
72110;BME280;59983;52.010;5.420;2022-12-05T00:13:02;101876.31;;;4.75;84.26
72110;BME280;59983;52.010;5.420;2022-12-05T00:15:29;101876.84;;;4.77;84.27
72110;BME280;59983;52.010;5.420;2022-12-05T00:17:56;101876.03;;;4.76;84.71
72110;BME280;59983;52.010;5.420;2022-12-05T00:20:23;101878.19;;;4.79;84.84
72110;BME280;59983;52.010;5.420;2022-12-05T00:22:49;101889.44;;;4.81;84.42
72110;BME280;59983;52.010;5.420;2022-12-05T00:25:16;101888.88;;;4.84;85.12
72110;BME280;59983;52.010;5.420;2022-12-05T00:27:42;101882.97;;;4.88;85.26
72110;BME280;59983;52.010;5.420;2022-12-05T00:30:09;101875.22;;;4.81;84.61
72110;BME280;59983;52.010;5.420;2022-12-05T00:32:36;101876.53;;;4.83;85.36
72110;BME280;59983;52.010;5.420;2022-12-05T00:35:02;101882.16;;;4.87;85.50
72110;BME280;59983;52.010;5.420;2022-12-05T00:37:29;101883.50;;;4.84;85.25
72110;BME280;59983;52.010;5.420;2022-12-05T00:39:55;101878.13;;;4.84;85.01
72110;BME280;59983;52.010;5.420;2022-12-05T00:42:22;101884.88;;;4.82;85.95
72110;BME280;59983;52.010;5.420;2022-12-05T00:44:49;101876.81;;;4.82;85.34
72110;BME280;59983;52.010;5.420;2022-12-05T00:47:15;101873.88;;;4.78;85.84
72110;BME280;59983;52.010;5.420;2022-12-05T00:49:42;101873.34;;;4.76;86.04
72110;BME280;59983;52.010;5.420;2022-12-05T00:52:08;101872.00;;;4.79;85.66
72110;BME280;59983;52.010;5.420;2022-12-05T00:54:35;101873.31;;;4.81;85.53
72110;BME280;59983;52.010;5.420;2022-12-05T00:57:01;101871.16;;;4.83;85.92
72110;BME280;59983;52.010;5.420;2022-12-05T00:59:28;101870.41;;;4.78;85.73
72110;BME280;59983;52.010;5.420;2022-12-05T01:01:54;101873.13;;;4.73;85.70
72110;BME280;59983;52.010;5.420;2022-12-05T01:04:23;101868.53;;;4.73;85.80
72110;BME280;59983;52.010;5.420;2022-12-05T01:06:53;101874.41;;;4.80;85.89
72110;BME280;59983;52.010;5.420;2022-12-05T01:09:20;101875.22;;;4.76;85.62
72110;BME280;59983;52.010;5.420;2022-12-05T01:11:47;101870.13;;;4.79;86.63
72110;BME280;59983;52.010;5.420;2022-12-05T01:14:16;101871.94;;;4.84;85.91
72110;BME280;59983;52.010;5.420;2022-12-05T01:16:44;101877.09;;;4.80;86.06
72110;BME280;59983;52.010;5.420;2022-12-05T01:19:17;101870.63;;;4.81;86.36
72110;BME280;59983;52.010;5.420;2022-12-05T01:21:44;101868.22;;;4.80;86.44
72110;BME280;59983;52.010;5.420;2022-12-05T01:24:14;101869.03;;;4.80;86.13
72110;BME280;59983;52.010;5.420;2022-12-05T01:26:41;101872.31;;;4.72;87.24
72110;BME280;59983;52.010;5.420;2022-12-05T01:29:09;101877.91;;;4.81;87.21
72110;BME280;59983;52.010;5.420;2022-12-05T01:31:37;101879.53;;;4.77;87.16
72110;BME280;59983;52.010;5.420;2022-12-05T01:34:05;101873.34;;;4.76;86.52
72110;BME280;59983;52.010;5.420;2022-12-05T01:36:32;101875.78;;;4.78;87.61
72110;BME280;59983;52.010;5.420;2022-12-05T01:38:59;101880.66;;;4.71;87.62
72110;BME280;59983;52.010;5.420;2022-12-05T01:41:39;101882.84;;;4.69;88.07
72110;BME280;59983;52.010;5.420;2022-12-05T01:46:47;101887.59;;;4.77;87.80
72110;BME280;59983;52.010;5.420;2022-12-05T01:49:24;101882.25;;;4.72;87.45
72110;BME280;59983;52.010;5.420;2022-12-05T01:51:54;101875.22;;;4.76;87.65
72110;BME280;59983;52.010;5.420;2022-12-05T01:54:23;101881.66;;;4.80;87.96
72110;BME280;59983;52.010;5.420;2022-12-05T01:57:00;101877.91;;;4.81;88.10
72110;BME280;59983;52.010;5.420;2022-12-05T01:59:29;101877.91;;;4.81;88.07
72110;BME280;59983;52.010;5.420;2022-12-05T02:01:57;101880.28;;;4.82;87.41
72110;BME280;59983;52.010;5.420;2022-12-05T02:04:24;101882.69;;;4.89;87.87
72110;BME280;59983;52.010;5.420;2022-12-05T02:06:53;101877.81;;;4.91;87.79
72110;BME280;59983;52.010;5.420;2022-12-05T02:09:20;101882.91;;;4.93;87.64
72110;BME280;59983;52.010;5.420;2022-12-05T02:11:53;101876.44;;;4.94;87.76
72110;BME280;59983;52.010;5.420;2022-12-05T02:17:26;101878.63;;;4.92;87.93
72110;BME280;59983;52.010;5.420;2022-12-05T02:29:11;101873.25;;;4.92;87.97
72110;BME280;59983;52.010;5.420;2022-12-05T02:34:25;101864.97;;;4.83;88.36
72110;BME280;59983;52.010;5.420;2022-12-05T02:37:01;101877.00;;;4.91;88.45
72110;BME280;59983;52.010;5.420;2022-12-05T02:40:13;101879.19;;;4.89;88.94
72110;BME280;59983;52.010;5.420;2022-12-05T02:43:00;101881.81;;;4.94;88.85
72110;BME280;59983;52.010;5.420;2022-12-05T02:45:30;101878.63;;;4.92;88.51
72110;BME280;59983;52.010;5.420;2022-12-05T02:47:59;101875.13;;;4.91;88.81
72110;BME280;59983;52.010;5.420;2022-12-05T02:50:33;101875.41;;;4.90;88.85
72110;BME280;59983;52.010;5.420;2022-12-05T02:53:05;101876.44;;;4.94;88.90
72110;BME280;59983;52.010;5.420;2022-12-05T02:55:33;101880.69;;;5.00;89.31
72110;BME280;59983;52.010;5.420;2022-12-05T02:58:04;101879.91;;;4.99;88.86
72110;BME280;59983;52.010;5.420;2022-12-05T03:00:34;101876.63;;;5.02;88.40
72110;BME280;59983;52.010;5.420;2022-12-05T03:03:01;101886.06;;;5.00;89.21
72110;BME280;59983;52.010;5.420;2022-12-05T03:05:39;101878.00;;;5.00;89.40
72110;BME280;59983;52.010;5.420;2022-12-05T03:08:11;101878.25;;;5.03;89.17
72110;BME280;59983;52.010;5.420;2022-12-05T03:10:40;101879.63;;;5.01;89.18
72110;BME280;59983;52.010;5.420;2022-12-05T03:13:16;101878.00;;;5.05;89.44
72110;BME280;59983;52.010;5.420;2022-12-05T03:15:48;101880.63;;;5.10;89.28
72110;BME280;59983;52.010;5.420;2022-12-05T03:20:50;101884.66;;;5.13;88.78
72110;BME280;59983;52.010;5.420;2022-12-05T03:23:41;101887.59;;;5.11;89.07
72110;BME280;59983;52.010;5.420;2022-12-05T03:26:36;101886.75;;;5.16;89.35
72110;BME280;59983;52.010;5.420;2022-12-05T03:29:39;101884.59;;;5.18;88.85
72110;BME280;59983;52.010;5.420;2022-12-05T03:32:20;101888.34;;;5.22;89.10
72110;BME280;59983;52.010;5.420;2022-12-05T03:35:21;101885.09;;;5.20;89.04
72110;BME280;59983;52.010;5.420;2022-12-05T03:38:11;101889.13;;;5.22;89.01
72110;BME280;59983;52.010;5.420;2022-12-05T03:40:53;101898.59;;;5.15;88.79
72110;BME280;59983;52.010;5.420;2022-12-05T03:43:34;101893.97;;;5.20;89.18
72110;BME280;59983;52.010;5.420;2022-12-05T03:48:58;101901.22;;;5.25;89.44
72110;BME280;59983;52.010;5.420;2022-12-05T03:51:32;101897.75;;;5.19;89.38
72110;BME280;59983;52.010;5.420;2022-12-05T03:54:23;101902.03;;;5.20;89.72
72110;BME280;59983;52.010;5.420;2022-12-05T03:56:57;101903.94;;;5.20;89.80
72110;BME280;59983;52.010;5.420;2022-12-05T03:59:31;101905.28;;;5.22;89.17
72110;BME280;59983;52.010;5.420;2022-12-05T04:02:04;101908.19;;;5.26;89.64
72110;BME280;59983;52.010;5.420;2022-12-05T04:04:38;101905.53;;;5.21;89.61
72110;BME280;59983;52.010;5.420;2022-12-05T04:07:07;101901.72;;;5.27;89.27
72110;BME280;59983;52.010;5.420;2022-12-05T04:09:47;101911.44;;;5.23;89.31
72110;BME280;59983;52.010;5.420;2022-12-05T04:12:19;101900.16;;;5.21;90.11
72110;BME280;59983;52.010;5.420;2022-12-05T04:14:55;101911.38;;;5.28;89.40
72110;BME280;59983;52.010;5.420;2022-12-05T04:17:30;101906.59;;;5.25;89.63
72110;BME280;59983;52.010;5.420;2022-12-05T04:20:10;101906.59;;;5.25;90.02
72110;BME280;59983;52.010;5.420;2022-12-05T04:22:57;101904.19;;;5.23;90.11
72110;BME280;59983;52.010;5.420;2022-12-05T04:25:26;101902.22;;;5.29;89.69
72110;BME280;59983;52.010;5.420;2022-12-05T04:33:28;101904.13;;;5.28;89.73
72110;BME280;59983;52.010;5.420;2022-12-05T04:36:03;101905.97;;;5.33;90.05
72110;BME280;59983;52.010;5.420;2022-12-05T04:38:49;101903.28;;;5.33;89.99
72110;BME280;59983;52.010;5.420;2022-12-05T04:41:35;101898.13;;;5.36;90.28
72110;BME280;59983;52.010;5.420;2022-12-05T04:44:07;101907.59;;;5.29;89.94
72110;BME280;59983;52.010;5.420;2022-12-05T04:46:37;101907.34;;;5.30;89.82
72110;BME280;59983;52.010;5.420;2022-12-05T04:49:08;101903.28;;;5.33;90.70
72110;BME280;59983;52.010;5.420;2022-12-05T04:51:37;101900.09;;;5.31;90.28
72110;BME280;59983;52.010;5.420;2022-12-05T04:54:14;101905.13;;;5.37;90.35
72110;BME280;59983;52.010;5.420;2022-12-05T04:56:44;101905.66;;;5.39;90.47
72110;BME280;59983;52.010;5.420;2022-12-05T04:59:12;101897.31;;;5.36;90.25
72110;BME280;59983;52.010;5.420;2022-12-05T05:01:43;101906.19;;;5.36;90.15
72110;BME280;59983;52.010;5.420;2022-12-05T05:04:25;101899.28;;;5.30;90.36
72110;BME280;59983;52.010;5.420;2022-12-05T05:06:53;101903.31;;;5.28;90.66
72110;BME280;59983;52.010;5.420;2022-12-05T05:09:20;101903.91;;;5.25;90.98
72110;BME280;59983;52.010;5.420;2022-12-05T05:11:46;101905.78;;;5.24;90.90
72110;BME280;59983;52.010;5.420;2022-12-05T05:14:13;101898.75;;;5.28;91.03
72110;BME280;59983;52.010;5.420;2022-12-05T05:16:40;101907.56;;;5.34;90.76
72110;BME280;59983;52.010;5.420;2022-12-05T05:19:08;101903.22;;;5.38;90.44
72110;BME280;59983;52.010;5.420;2022-12-05T05:21:38;101912.38;;;5.37;90.79
72110;BME280;59983;52.010;5.420;2022-12-05T05:24:06;101907.25;;;5.40;91.01
72110;BME280;59983;52.010;5.420;2022-12-05T05:26:34;101922.59;;;5.40;90.44
72110;BME280;59983;52.010;5.420;2022-12-05T05:29:02;101908.34;;;5.39;90.66
72110;BME280;59983;52.010;5.420;2022-12-05T05:31:29;101912.09;;;5.38;90.46
72110;BME280;59983;52.010;5.420;2022-12-05T05:33:56;101915.34;;;5.35;90.68
72110;BME280;59983;52.010;5.420;2022-12-05T05:36:25;101915.66;;;5.34;90.95
72110;BME280;59983;52.010;5.420;2022-12-05T05:38:54;101916.94;;;5.42;91.14
72110;BME280;59983;52.010;5.420;2022-12-05T05:41:24;101913.66;;;5.45;91.32
72110;BME280;59983;52.010;5.420;2022-12-05T05:43:51;101924.50;;;5.39;91.14
72110;BME280;59983;52.010;5.420;2022-12-05T05:46:20;101915.63;;;5.39;91.14
72110;BME280;59983;52.010;5.420;2022-12-05T05:48:47;101913.63;;;5.50;90.75
72110;BME280;59983;52.010;5.420;2022-12-05T05:51:15;101919.00;;;5.50;91.18
72110;BME280;59983;52.010;5.420;2022-12-05T05:53:42;101917.91;;;5.51;90.78
72110;BME280;59983;52.010;5.420;2022-12-05T05:56:11;101919.03;;;5.45;91.22
72110;BME280;59983;52.010;5.420;2022-12-05T05:58:45;101908.00;;;5.46;91.26
72110;BME280;59983;52.010;5.420;2022-12-05T06:01:14;101911.22;;;5.48;91.02
72110;BME280;59983;52.010;5.420;2022-12-05T06:03:41;101918.47;;;5.48;91.30
72110;BME280;59983;52.010;5.420;2022-12-05T06:06:11;101915.75;;;5.53;91.33
72110;BME280;59983;52.010;5.420;2022-12-05T06:08:40;101921.13;;;5.53;90.98
72110;BME280;59983;52.010;5.420;2022-12-05T06:11:09;101920.63;;;5.46;90.89
72110;BME280;59983;52.010;5.420;2022-12-05T06:13:36;101924.13;;;5.46;91.29
72110;BME280;59983;52.010;5.420;2022-12-05T06:16:10;101920.13;;;5.44;91.21
72110;BME280;59983;52.010;5.420;2022-12-05T06:18:37;101921.44;;;5.46;91.20
72110;BME280;59983;52.010;5.420;2022-12-05T06:21:04;101916.34;;;5.45;91.67
72110;BME280;59983;52.010;5.420;2022-12-05T06:23:41;101916.88;;;5.47;91.30
72110;BME280;59983;52.010;5.420;2022-12-05T06:26:13;101924.09;;;5.51;91.94
72110;BME280;59983;52.010;5.420;2022-12-05T06:28:40;101916.22;;;5.60;91.26
72110;BME280;59983;52.010;5.420;2022-12-05T06:31:09;101917.84;;;5.56;91.54
72110;BME280;59983;52.010;5.420;2022-12-05T06:33:36;101918.66;;;5.56;91.44
72110;BME280;59983;52.010;5.420;2022-12-05T06:36:08;101924.91;;;5.52;91.45
72110;BME280;59983;52.010;5.420;2022-12-05T06:38:35;101935.94;;;5.50;91.59
72110;BME280;59983;52.010;5.420;2022-12-05T06:41:09;101922.16;;;5.57;91.54
72110;BME280;59983;52.010;5.420;2022-12-05T06:43:36;101930.25;;;5.57;91.97
72110;BME280;59983;52.010;5.420;2022-12-05T06:46:04;101936.38;;;5.62;92.18
72110;BME280;59983;52.010;5.420;2022-12-05T06:48:31;101937.75;;;5.60;91.90
72110;BME280;59983;52.010;5.420;2022-12-05T06:50:58;101938.31;;;5.57;91.58
72110;BME280;59983;52.010;5.420;2022-12-05T06:53:25;101942.63;;;5.58;91.99
72110;BME280;59983;52.010;5.420;2022-12-05T06:56:04;101936.63;;;5.66;91.96
72110;BME280;59983;52.010;5.420;2022-12-05T06:58:30;101936.84;;;5.69;92.10
72110;BME280;59983;52.010;5.420;2022-12-05T07:00:57;101939.25;;;5.71;91.87
72110;BME280;59983;52.010;5.420;2022-12-05T07:03:42;101943.78;;;5.76;91.43
72110;BME280;59983;52.010;5.420;2022-12-05T07:06:14;101952.38;;;5.78;91.46
72110;BME280;59983;52.010;5.420;2022-12-05T07:08:41;101948.88;;;5.77;91.54
72110;BME280;59983;52.010;5.420;2022-12-05T07:11:09;101954.00;;;5.74;91.55
72110;BME280;59983;52.010;5.420;2022-12-05T07:13:36;101954.00;;;5.74;91.38
72110;BME280;59983;52.010;5.420;2022-12-05T07:16:02;101945.91;;;5.79;92.07
72110;BME280;59983;52.010;5.420;2022-12-05T07:18:33;101948.38;;;5.75;91.66
72110;BME280;59983;52.010;5.420;2022-12-05T07:21:01;101954.25;;;5.77;91.87
72110;BME280;59983;52.010;5.420;2022-12-05T07:23:38;101955.56;;;5.80;91.66
72110;BME280;59983;52.010;5.420;2022-12-05T07:26:09;101956.66;;;5.79;91.76
72110;BME280;59983;52.010;5.420;2022-12-05T07:28:36;101956.09;;;5.82;91.84
72110;BME280;59983;52.010;5.420;2022-12-05T07:31:08;101963.03;;;5.88;91.77
72110;BME280;59983;52.010;5.420;2022-12-05T07:33:35;101958.44;;;5.88;91.82
72110;BME280;59983;52.010;5.420;2022-12-05T07:36:08;101958.44;;;5.88;91.86
72110;BME280;59983;52.010;5.420;2022-12-05T07:38:35;101963.28;;;5.91;91.62
72110;BME280;59983;52.010;5.420;2022-12-05T07:41:22;101961.44;;;5.87;92.04
72110;BME280;59983;52.010;5.420;2022-12-05T07:43:53;101969.78;;;5.85;91.61
72110;BME280;59983;52.010;5.420;2022-12-05T07:46:21;101972.19;;;5.87;92.19
72110;BME280;59983;52.010;5.420;2022-12-05T07:48:48;101971.03;;;5.98;91.63
72110;BME280;59983;52.010;5.420;2022-12-05T07:51:16;101973.22;;;5.96;91.38
72110;BME280;59983;52.010;5.420;2022-12-05T07:53:43;101983.19;;;5.95;91.73
72110;BME280;59983;52.010;5.420;2022-12-05T07:56:11;101986.97;;;5.89;91.71
72110;BME280;59983;52.010;5.420;2022-12-05T07:58:44;101992.09;;;5.91;91.85
72110;BME280;59983;52.010;5.420;2022-12-05T08:03:40;101981.06;;;5.92;92.22
72110;BME280;59983;52.010;5.420;2022-12-05T08:06:12;101976.75;;;5.91;92.12
72110;BME280;59983;52.010;5.420;2022-12-05T08:08:39;101987.50;;;5.91;92.26
72110;BME280;59983;52.010;5.420;2022-12-05T08:11:09;101986.97;;;5.94;92.48
72110;BME280;59983;52.010;5.420;2022-12-05T08:13:36;101984.28;;;5.94;92.04
72110;BME280;59983;52.010;5.420;2022-12-05T08:16:04;101986.72;;;5.91;92.42
72110;BME280;59983;52.010;5.420;2022-12-05T08:18:31;101985.66;;;5.92;92.54
72110;BME280;59983;52.010;5.420;2022-12-05T08:21:05;101995.34;;;5.93;92.30
72110;BME280;59983;52.010;5.420;2022-12-05T08:23:33;101986.97;;;5.94;92.46
72110;BME280;59983;52.010;5.420;2022-12-05T08:26:01;101999.34;;;5.95;92.54
72110;BME280;59983;52.010;5.420;2022-12-05T08:28:29;101995.25;;;5.98;92.73
72110;BME280;59983;52.010;5.420;2022-12-05T08:31:05;102005.75;;;6.00;92.43
72110;BME280;59983;52.010;5.420;2022-12-05T08:33:32;102005.19;;;6.03;92.85
72110;BME280;59983;52.010;5.420;2022-12-05T08:36:01;102012.19;;;6.04;92.64
72110;BME280;59983;52.010;5.420;2022-12-05T08:38:28;101996.81;;;6.04;92.39
72110;BME280;59983;52.010;5.420;2022-12-05T08:40:55;102003.81;;;6.05;92.38
72110;BME280;59983;52.010;5.420;2022-12-05T08:43:22;102004.31;;;6.07;92.66
72110;BME280;59983;52.010;5.420;2022-12-05T08:45:52;102005.19;;;6.03;92.41
72110;BME280;59983;52.010;5.420;2022-12-05T08:48:19;102007.59;;;6.04;92.43
72110;BME280;59983;52.010;5.420;2022-12-05T08:50:54;102002.13;;;6.09;92.67
72110;BME280;59983;52.010;5.420;2022-12-05T08:53:21;102011.84;;;6.10;92.46
72110;BME280;59983;52.010;5.420;2022-12-05T08:55:47;102016.69;;;6.08;92.62
72110;BME280;59983;52.010;5.420;2022-12-05T08:58:14;102012.88;;;6.14;92.95
72110;BME280;59983;52.010;5.420;2022-12-05T09:00:41;102017.63;;;6.22;92.76
72110;BME280;59983;52.010;5.420;2022-12-05T09:03:10;102029.78;;;6.20;92.32
72110;BME280;59983;52.010;5.420;2022-12-05T09:05:37;102026.00;;;6.21;92.22
72110;BME280;59983;52.010;5.420;2022-12-05T09:08:04;102024.13;;;6.21;92.51
72110;BME280;59983;52.010;5.420;2022-12-05T09:10:30;102029.22;;;6.23;92.33
72110;BME280;59983;52.010;5.420;2022-12-05T09:12:57;102030.81;;;6.24;92.43
72110;BME280;59983;52.010;5.420;2022-12-05T09:15:23;102029.69;;;6.30;92.69
72110;BME280;59983;52.010;5.420;2022-12-05T09:17:50;102028.47;;;6.41;93.13
72110;BME280;59983;52.010;5.420;2022-12-05T09:20:16;102025.53;;;6.62;93.84
72110;BME280;59983;52.010;5.420;2022-12-05T09:22:43;102033.84;;;6.65;92.66
72110;BME280;59983;52.010;5.420;2022-12-05T09:25:10;102021.94;;;6.47;92.20
72110;BME280;59983;52.010;5.420;2022-12-05T09:27:36;102026.34;;;6.38;92.26
72110;BME280;59983;52.010;5.420;2022-12-05T09:30:04;102029.59;;;6.35;92.51
72110;BME280;59983;52.010;5.420;2022-12-05T09:32:31;102033.34;;;6.39;92.34
72110;BME280;59983;52.010;5.420;2022-12-05T09:34:58;102037.66;;;6.40;92.41
72110;BME280;59983;52.010;5.420;2022-12-05T09:37:25;102035.78;;;6.36;92.59
72110;BME280;59983;52.010;5.420;2022-12-05T09:40:16;102048.22;;;6.37;92.74
72110;BME280;59983;52.010;5.420;2022-12-05T09:45:34;102044.34;;;6.43;92.50
72110;BME280;59983;52.010;5.420;2022-12-05T09:48:18;102045.91;;;6.49;92.49
72110;BME280;59983;52.010;5.420;2022-12-05T09:50:49;102049.09;;;6.51;92.57
72110;BME280;59983;52.010;5.420;2022-12-05T09:53:36;102046.91;;;6.53;92.03
72110;BME280;59983;52.010;5.420;2022-12-05T09:56:26;102048.38;;;6.45;92.48
72110;BME280;59983;52.010;5.420;2022-12-05T09:58:56;102055.25;;;6.57;92.86
72110;BME280;59983;52.010;5.420;2022-12-05T10:17:45;102048.75;;;6.58;92.57
72110;BME280;59983;52.010;5.420;2022-12-05T10:20:20;102050.16;;;6.55;92.23
72110;BME280;59983;52.010;5.420;2022-12-05T10:22:54;102047.88;;;6.62;92.31
72110;BME280;59983;52.010;5.420;2022-12-05T10:25:24;102049.94;;;6.70;92.18
72110;BME280;59983;52.010;5.420;2022-12-05T10:27:57;102045.72;;;6.64;92.03
72110;BME280;59983;52.010;5.420;2022-12-05T10:30:33;102044.69;;;6.60;92.04
72110;BME280;59983;52.010;5.420;2022-12-05T10:33:10;102044.13;;;6.63;92.08
72110;BME280;59983;52.010;5.420;2022-12-05T10:35:39;102049.53;;;6.63;92.11
72110;BME280;59983;52.010;5.420;2022-12-05T10:38:12;102044.03;;;6.68;92.09
72110;BME280;59983;52.010;5.420;2022-12-05T10:40:45;102044.78;;;6.74;92.13
72110;BME280;59983;52.010;5.420;2022-12-05T10:43:27;102044.50;;;6.75;91.84
72110;BME280;59983;52.010;5.420;2022-12-05T10:45:55;102046.09;;;6.76;91.81
72110;BME280;59983;52.010;5.420;2022-12-05T10:48:22;102043.34;;;6.81;91.83
72110;BME280;59983;52.010;5.420;2022-12-05T10:50:54;102036.88;;;6.82;91.87
72110;BME280;59983;52.010;5.420;2022-12-05T10:53:28;102036.34;;;6.80;91.51
72110;BME280;59983;52.010;5.420;2022-12-05T10:55:57;102037.38;;;6.85;91.41
72110;BME280;59983;52.010;5.420;2022-12-05T10:58:54;102035.31;;;6.76;91.44
72110;BME280;59983;52.010;5.420;2022-12-05T11:01:24;102032.28;;;6.83;91.57
72110;BME280;59983;52.010;5.420;2022-12-05T11:04:12;102031.97;;;6.85;91.40
72110;BME280;59983;52.010;5.420;2022-12-05T11:06:52;102025.19;;;6.87;91.63
72110;BME280;59983;52.010;5.420;2022-12-05T11:09:22;102030.88;;;6.86;91.68
72110;BME280;59983;52.010;5.420;2022-12-05T11:12:00;102035.97;;;6.87;91.69
72110;BME280;59983;52.010;5.420;2022-12-05T11:14:28;102031.69;;;6.86;91.47
72110;BME280;59983;52.010;5.420;2022-12-05T11:16:57;102030.09;;;6.85;91.83
72110;BME280;59983;52.010;5.420;2022-12-05T11:19:35;102030.88;;;6.86;91.47
72110;BME280;59983;52.010;5.420;2022-12-05T11:22:03;102021.41;;;6.88;91.28
72110;BME280;59983;52.010;5.420;2022-12-05T11:27:18;102030.38;;;6.84;91.82
72110;BME280;59983;52.010;5.420;2022-12-05T11:32:28;102029.00;;;6.86;91.74
72110;BME280;59983;52.010;5.420;2022-12-05T11:37:56;102027.72;;;6.78;91.66
72110;BME280;59983;52.010;5.420;2022-12-05T11:40:33;102034.47;;;6.81;91.91
72110;BME280;59983;52.010;5.420;2022-12-05T11:46:22;102027.38;;;6.85;91.57
72110;BME280;59983;52.010;5.420;2022-12-05T11:51:49;102025.91;;;6.74;91.60
72110;BME280;59983;52.010;5.420;2022-12-05T11:54:39;102025.03;;;6.78;91.82
72110;BME280;59983;52.010;5.420;2022-12-05T12:05:43;102026.00;;;6.88;92.06
72110;BME280;59983;52.010;5.420;2022-12-05T12:19:06;102029.78;;;6.87;92.27
72110;BME280;59983;52.010;5.420;2022-12-05T12:24:34;102012.66;;;6.96;92.68
72110;BME280;59983;52.010;5.420;2022-12-05T12:49:02;102001.94;;;7.10;92.63
72110;BME280;59983;52.010;5.420;2022-12-05T12:51:32;102001.94;;;7.10;92.55
72110;BME280;59983;52.010;5.420;2022-12-05T13:02:55;101999.03;;;7.25;91.97
72110;BME280;59983;52.010;5.420;2022-12-05T13:08:34;101992.69;;;7.16;91.82
72110;BME280;59983;52.010;5.420;2022-12-05T13:11:07;101994.38;;;7.12;92.02
72110;BME280;59983;52.010;5.420;2022-12-05T13:13:38;101993.84;;;7.10;92.22
72110;BME280;59983;52.010;5.420;2022-12-05T13:16:12;101997.56;;;7.14;92.11
72110;BME280;59983;52.010;5.420;2022-12-05T13:18:41;101997.56;;;7.14;92.12
72110;BME280;59983;52.010;5.420;2022-12-05T13:21:09;101994.00;;;7.19;91.81
72110;BME280;59983;52.010;5.420;2022-12-05T13:23:43;101994.00;;;7.19;91.92
72110;BME280;59983;52.010;5.420;2022-12-05T13:26:11;101989.25;;;7.10;91.20
72110;BME280;59983;52.010;5.420;2022-12-05T13:28:46;101992.03;;;7.05;91.48
72110;BME280;59983;52.010;5.420;2022-12-05T13:31:14;101993.56;;;7.12;91.51
72110;BME280;59983;52.010;5.420;2022-12-05T13:33:47;101987.38;;;7.11;91.14
72110;BME280;59983;52.010;5.420;2022-12-05T13:36:18;101993.06;;;7.09;91.28
72110;BME280;59983;52.010;5.420;2022-12-05T13:39:26;101994.16;;;7.08;91.03
72110;BME280;59983;52.010;5.420;2022-12-05T13:42:22;101991.88;;;6.97;91.19
72110;BME280;59983;52.010;5.420;2022-12-05T13:44:54;101993.22;;;6.99;91.26
72110;BME280;59983;52.010;5.420;2022-12-05T13:47:44;101992.28;;;6.90;91.42
72110;BME280;59983;52.010;5.420;2022-12-05T13:50:32;101993.56;;;6.93;91.53
72110;BME280;59983;52.010;5.420;2022-12-05T13:56:25;101999.25;;;6.91;91.37
72110;BME280;59983;52.010;5.420;2022-12-05T13:58:57;102007.06;;;6.93;91.21
72110;BME280;59983;52.010;5.420;2022-12-05T14:04:42;101997.94;;;6.89;91.17
72110;BME280;59983;52.010;5.420;2022-12-05T14:07:08;102000.91;;;6.87;91.15
72110;BME280;59983;52.010;5.420;2022-12-05T14:09:54;102004.56;;;6.96;91.47
72110;BME280;59983;52.010;5.420;2022-12-05T14:14:59;102005.59;;;7.00;91.29
72110;BME280;59983;52.010;5.420;2022-12-05T14:17:41;102007.66;;;6.90;91.28
72110;BME280;59983;52.010;5.420;2022-12-05T14:31:00;102018.56;;;6.79;91.79
72110;BME280;59983;52.010;5.420;2022-12-05T14:33:30;102016.31;;;6.87;91.80
72110;BME280;59983;52.010;5.420;2022-12-05T14:36:04;102012.88;;;6.81;91.38
72110;BME280;59983;52.010;5.420;2022-12-05T14:38:33;102006.91;;;6.84;91.92
72110;BME280;59983;52.010;5.420;2022-12-05T14:41:25;102013.59;;;6.87;91.72
72110;BME280;59983;52.010;5.420;2022-12-05T14:43:55;102003.63;;;6.87;91.74
72110;BME280;59983;52.010;5.420;2022-12-05T14:46:25;102010.84;;;6.92;91.51
72110;BME280;59983;52.010;5.420;2022-12-05T14:48:52;102012.44;;;6.93;91.71
72110;BME280;59983;52.010;5.420;2022-12-05T14:54:16;102022.19;;;6.89;91.80
72110;BME280;59983;52.010;5.420;2022-12-05T14:56:51;102036.88;;;6.82;91.64
72110;BME280;59983;52.010;5.420;2022-12-05T14:59:27;102028.53;;;6.79;91.67
72110;BME280;59983;52.010;5.420;2022-12-05T15:01:58;102036.56;;;6.84;91.76
72110;BME280;59983;52.010;5.420;2022-12-05T15:07:45;102033.00;;;6.89;91.70
72110;BME280;59983;52.010;5.420;2022-12-05T15:10:22;102031.69;;;6.86;91.41
72110;BME280;59983;52.010;5.420;2022-12-05T15:12:59;102024.38;;;6.87;91.59
72110;BME280;59983;52.010;5.420;2022-12-05T15:15:36;102039.31;;;6.79;91.52
72110;BME280;59983;52.010;5.420;2022-12-05T15:18:23;102028.53;;;6.79;91.73
72110;BME280;59983;52.010;5.420;2022-12-05T15:21:13;102031.78;;;6.81;91.67
72110;BME280;59983;52.010;5.420;2022-12-05T15:23:47;102041.00;;;6.75;91.59
72110;BME280;59983;52.010;5.420;2022-12-05T15:31:54;102045.31;;;6.76;92.06
72110;BME280;59983;52.010;5.420;2022-12-05T15:34:29;102044.03;;;6.68;91.87
72110;BME280;59983;52.010;5.420;2022-12-05T15:37:04;102047.19;;;6.75;92.14
72110;BME280;59983;52.010;5.420;2022-12-05T15:39:55;102043.63;;;6.80;92.20
72110;BME280;59983;52.010;5.420;2022-12-05T15:42:24;102049.09;;;6.75;91.93
72110;BME280;59983;52.010;5.420;2022-12-05T15:50:47;102038.22;;;6.80;91.99
72110;BME280;59983;52.010;5.420;2022-12-05T15:56:11;102045.00;;;6.77;92.16
72110;BME280;59983;52.010;5.420;2022-12-05T15:58:45;102043.84;;;6.84;92.22
72110;BME280;59983;52.010;5.420;2022-12-05T16:01:19;102052.53;;;6.80;91.99
72110;BME280;59983;52.010;5.420;2022-12-05T16:06:48;102051.19;;;6.78;92.31
72110;BME280;59983;52.010;5.420;2022-12-05T16:09:17;102051.94;;;6.84;92.06